IGO737F VABB-VOHS
Flight info
| Callsign | IGO737F |
|---|---|
| Flight time | 0h 59m |
| Altitude | 37000 |
| Route | VEVAK2A PPN W28 PONIP NAMSA8 |
| Aircraft | A20N/M-SDE2E3FGHIRWXY/LB1 |
Departure
| Time | 2026-04-23 15:21 |
|---|---|
| Airport | Chhatrapati Shivaji Maharaj International Airport (VABB) |
Arrival
| Time | 2026-04-23 16:21 |
|---|---|
| Airport | Rajiv Gandhi International Airport (VOHS) |
| Time | Latitude | Longitude | Altitude | Speed | Heading |
|---|---|---|---|---|---|
| 2026-04-23 14:42 | 19.09160 | 72.85564 | 31 ft | 0 kts | 1° |
| 2026-04-23 15:09 | 19.09152 | 72.85564 | 31 ft | 2 kts | 1° |
| 2026-04-23 15:09 | 19.09137 | 72.85564 | 30 ft | 2 kts | 1° |
| 2026-04-23 15:09 | 19.09121 | 72.85563 | 29 ft | 2 kts | 20° |
| 2026-04-23 15:09 | 19.09108 | 72.85555 | 29 ft | 2 kts | 41° |
| 2026-04-23 15:10 | 19.09101 | 72.85548 | 29 ft | 2 kts | 56° |
| 2026-04-23 15:10 | 19.09094 | 72.85529 | 28 ft | 1 kts | 85° |
| 2026-04-23 15:10 | 19.09094 | 72.85522 | 28 ft | 1 kts | 92° |
| 2026-04-23 15:10 | 19.09094 | 72.85519 | 28 ft | 0 kts | 90° |
| 2026-04-23 15:12 | 19.09094 | 72.85523 | 28 ft | 1 kts | 90° |
| 2026-04-23 15:12 | 19.09094 | 72.85535 | 28 ft | 2 kts | 90° |
| 2026-04-23 15:12 | 19.09094 | 72.85558 | 28 ft | 3 kts | 89° |
| 2026-04-23 15:13 | 19.09092 | 72.85589 | 29 ft | 4 kts | 108° |
| 2026-04-23 15:13 | 19.09061 | 72.85606 | 28 ft | 7 kts | 172° |
| 2026-04-23 15:13 | 19.09026 | 72.85645 | 27 ft | 9 kts | 90° |
| 2026-04-23 15:13 | 19.09027 | 72.85713 | 28 ft | 9 kts | 89° |
| 2026-04-23 15:14 | 19.09028 | 72.85789 | 28 ft | 10 kts | 89° |
| 2026-04-23 15:14 | 19.09029 | 72.85870 | 28 ft | 11 kts | 89° |
| 2026-04-23 15:14 | 19.09031 | 72.85950 | 30 ft | 10 kts | 89° |
| 2026-04-23 15:14 | 19.09032 | 72.86028 | 30 ft | 11 kts | 88° |
| 2026-04-23 15:15 | 19.09033 | 72.86112 | 30 ft | 12 kts | 90° |
| 2026-04-23 15:15 | 19.09034 | 72.86204 | 30 ft | 12 kts | 89° |
| 2026-04-23 15:15 | 19.09036 | 72.86301 | 30 ft | 13 kts | 88° |
| 2026-04-23 15:15 | 19.09038 | 72.86403 | 31 ft | 14 kts | 90° |
| 2026-04-23 15:16 | 19.09038 | 72.86510 | 30 ft | 15 kts | 89° |
| 2026-04-23 15:16 | 19.09042 | 72.86625 | 30 ft | 15 kts | 88° |
| 2026-04-23 15:16 | 19.09042 | 72.86740 | 30 ft | 14 kts | 90° |
| 2026-04-23 15:16 | 19.09043 | 72.86835 | 30 ft | 12 kts | 88° |
| 2026-04-23 15:17 | 19.09045 | 72.86937 | 28 ft | 14 kts | 90° |
| 2026-04-23 15:17 | 19.09047 | 72.87050 | 28 ft | 15 kts | 87° |
| 2026-04-23 15:17 | 19.09051 | 72.87164 | 28 ft | 15 kts | 89° |
| 2026-04-23 15:17 | 19.09052 | 72.87221 | 28 ft | 7 kts | 89° |
| 2026-04-23 15:18 | 19.09053 | 72.87288 | 28 ft | 10 kts | 89° |
| 2026-04-23 15:18 | 19.09054 | 72.87375 | 28 ft | 12 kts | 89° |
| 2026-04-23 15:18 | 19.09054 | 72.87482 | 28 ft | 15 kts | 90° |
| 2026-04-23 15:18 | 19.09056 | 72.87595 | 28 ft | 15 kts | 89° |
| 2026-04-23 15:19 | 19.09057 | 72.87709 | 29 ft | 15 kts | 89° |
| 2026-04-23 15:19 | 19.09059 | 72.87817 | 30 ft | 14 kts | 89° |
| 2026-04-23 15:19 | 19.09060 | 72.87919 | 32 ft | 13 kts | 89° |
| 2026-04-23 15:19 | 19.09061 | 72.88007 | 33 ft | 9 kts | 89° |
| 2026-04-23 15:20 | 19.09027 | 72.88052 | 33 ft | 9 kts | 180° |
| 2026-04-23 15:20 | 19.08954 | 72.88050 | 33 ft | 11 kts | 181° |
| 2026-04-23 15:20 | 19.08888 | 72.88026 | 33 ft | 11 kts | 259° |
| 2026-04-23 15:20 | 19.08886 | 72.87907 | 31 ft | 36 kts | 269° |
| 2026-04-23 15:21 | 19.08879 | 72.87389 | 26 ft | 102 kts | 269° |
| 2026-04-23 15:21 | 19.08867 | 72.86444 | 33 ft | 154 kts | 268° |
| 2026-04-23 15:21 | 19.08859 | 72.85246 | 456 ft | 159 kts | 271° |
| 2026-04-23 15:21 | 19.08852 | 72.84084 | 943 ft | 162 kts | 270° |
| 2026-04-23 15:22 | 19.08831 | 72.82890 | 1423 ft | 166 kts | 270° |
| 2026-04-23 15:22 | 19.08810 | 72.81683 | 1878 ft | 171 kts | 270° |
| 2026-04-23 15:22 | 19.08789 | 72.80376 | 2143 ft | 182 kts | 270° |
| 2026-04-23 15:22 | 19.08769 | 72.79010 | 2367 ft | 193 kts | 270° |
| 2026-04-23 15:23 | 19.08744 | 72.77546 | 2598 ft | 205 kts | 270° |
| 2026-04-23 15:23 | 19.08718 | 72.75996 | 2825 ft | 216 kts | 270° |
| 2026-04-23 15:23 | 19.08633 | 72.74359 | 3036 ft | 230 kts | 260° |
| 2026-04-23 15:23 | 19.07870 | 72.72816 | 3156 ft | 252 kts | 225° |
| 2026-04-23 15:24 | 19.06333 | 72.71872 | 3555 ft | 260 kts | 193° |
| 2026-04-23 15:24 | 19.04540 | 72.71903 | 4018 ft | 262 kts | 161° |
| 2026-04-23 15:24 | 19.03024 | 72.72897 | 4487 ft | 261 kts | 134° |
| 2026-04-23 15:24 | 19.01684 | 72.74213 | 4966 ft | 265 kts | 146° |
| 2026-04-23 15:25 | 18.99940 | 72.74817 | 5433 ft | 268 kts | 177° |
| 2026-04-23 15:25 | 18.98061 | 72.74823 | 5875 ft | 274 kts | 181° |
| 2026-04-23 15:25 | 18.96095 | 72.74779 | 6142 ft | 289 kts | 181° |
| 2026-04-23 15:25 | 18.94058 | 72.74724 | 6536 ft | 296 kts | 181° |
| 2026-04-23 15:26 | 18.91992 | 72.74665 | 7064 ft | 298 kts | 181° |
| 2026-04-23 15:26 | 18.89912 | 72.74606 | 7624 ft | 300 kts | 181° |
| 2026-04-23 15:26 | 18.87796 | 72.74548 | 8162 ft | 302 kts | 181° |
| 2026-04-23 15:26 | 18.85699 | 72.74493 | 8593 ft | 304 kts | 181° |
| 2026-04-23 15:27 | 18.83570 | 72.74438 | 8788 ft | 305 kts | 181° |
| 2026-04-23 15:27 | 18.81440 | 72.74454 | 8790 ft | 303 kts | 170° |
| 2026-04-23 15:27 | 18.79536 | 72.75266 | 8791 ft | 298 kts | 140° |
| 2026-04-23 15:27 | 18.78221 | 72.76926 | 8843 ft | 298 kts | 113° |
| 2026-04-23 15:28 | 18.77757 | 72.79069 | 9258 ft | 299 kts | 89° |
| 2026-04-23 15:28 | 18.77842 | 72.81242 | 9919 ft | 296 kts | 86° |
| 2026-04-23 15:28 | 18.77923 | 72.83419 | 10310 ft | 305 kts | 87° |
| 2026-04-23 15:28 | 18.77990 | 72.85684 | 10545 ft | 318 kts | 88° |
| 2026-04-23 15:29 | 18.78051 | 72.88075 | 10869 ft | 328 kts | 88° |
| 2026-04-23 15:29 | 18.78107 | 72.90496 | 11376 ft | 332 kts | 89° |
| 2026-04-23 15:29 | 18.78161 | 72.92923 | 11942 ft | 333 kts | 89° |
| 2026-04-23 15:29 | 18.78217 | 72.95358 | 12491 ft | 336 kts | 88° |
| 2026-04-23 15:30 | 18.78343 | 72.97810 | 13061 ft | 339 kts | 87° |
| 2026-04-23 15:30 | 18.78489 | 73.00288 | 13656 ft | 341 kts | 87° |
| 2026-04-23 15:30 | 18.78640 | 73.02810 | 14424 ft | 345 kts | 86° |
| 2026-04-23 15:30 | 18.78790 | 73.05328 | 15244 ft | 348 kts | 86° |
| 2026-04-23 15:31 | 18.78941 | 73.07870 | 16113 ft | 350 kts | 86° |
| 2026-04-23 15:31 | 18.79092 | 73.10443 | 16926 ft | 353 kts | 86° |
| 2026-04-23 15:31 | 18.79251 | 73.13058 | 17337 ft | 357 kts | 86° |
| 2026-04-23 15:31 | 18.79409 | 73.15674 | 17825 ft | 358 kts | 86° |
| 2026-04-23 15:32 | 18.79563 | 73.18266 | 18301 ft | 361 kts | 86° |
| 2026-04-23 15:32 | 18.79719 | 73.20898 | 18834 ft | 362 kts | 86° |
| 2026-04-23 15:32 | 18.79875 | 73.23561 | 19378 ft | 366 kts | 86° |
| 2026-04-23 15:32 | 18.80030 | 73.26266 | 19890 ft | 371 kts | 86° |
| 2026-04-23 15:33 | 18.80186 | 73.28972 | 20404 ft | 375 kts | 86° |
| 2026-04-23 15:33 | 18.80346 | 73.31753 | 20904 ft | 380 kts | 86° |
| 2026-04-23 15:33 | 18.80506 | 73.34519 | 21376 ft | 386 kts | 86° |
| 2026-04-23 15:33 | 18.80670 | 73.37373 | 21890 ft | 390 kts | 86° |
| 2026-04-23 15:34 | 18.80668 | 73.40219 | 22404 ft | 394 kts | 95° |
| 2026-04-23 15:34 | 18.80148 | 73.43060 | 22906 ft | 399 kts | 107° |
| 2026-04-23 15:34 | 18.79137 | 73.45770 | 23396 ft | 401 kts | 115° |
| 2026-04-23 15:34 | 18.77931 | 73.48433 | 23870 ft | 404 kts | 116° |
| 2026-04-23 15:35 | 18.76681 | 73.51125 | 24337 ft | 408 kts | 116° |
| 2026-04-23 15:35 | 18.75437 | 73.53824 | 24803 ft | 412 kts | 116° |
| 2026-04-23 15:35 | 18.74201 | 73.56531 | 25273 ft | 415 kts | 116° |
| 2026-04-23 15:35 | 18.72944 | 73.59293 | 25724 ft | 418 kts | 116° |
| 2026-04-23 15:36 | 18.71685 | 73.62060 | 26176 ft | 421 kts | 116° |
| 2026-04-23 15:36 | 18.70425 | 73.64835 | 26631 ft | 423 kts | 117° |
| 2026-04-23 15:36 | 18.69148 | 73.67656 | 27055 ft | 426 kts | 117° |
| 2026-04-23 15:36 | 18.67882 | 73.70452 | 27465 ft | 429 kts | 117° |
| 2026-04-23 15:37 | 18.66590 | 73.73302 | 27880 ft | 431 kts | 117° |
| 2026-04-23 15:37 | 18.65301 | 73.76144 | 28282 ft | 433 kts | 118° |
| 2026-04-23 15:37 | 18.63992 | 73.79024 | 28626 ft | 433 kts | 118° |
| 2026-04-23 15:37 | 18.62698 | 73.81873 | 28906 ft | 438 kts | 118° |
| 2026-04-23 15:38 | 18.61380 | 73.84779 | 29250 ft | 441 kts | 118° |
| 2026-04-23 15:38 | 18.60042 | 73.87721 | 29591 ft | 444 kts | 119° |
| 2026-04-23 15:38 | 18.58714 | 73.90644 | 29910 ft | 445 kts | 119° |
| 2026-04-23 15:38 | 18.57396 | 73.93598 | 30183 ft | 449 kts | 118° |
| 2026-04-23 15:39 | 18.56103 | 73.96584 | 30525 ft | 451 kts | 118° |
| 2026-04-23 15:39 | 18.54794 | 73.99625 | 30970 ft | 450 kts | 118° |
| 2026-04-23 15:39 | 18.53507 | 74.02625 | 31389 ft | 449 kts | 119° |
| 2026-04-23 15:39 | 18.52228 | 74.05592 | 31754 ft | 450 kts | 119° |
| 2026-04-23 15:40 | 18.50935 | 74.08587 | 32127 ft | 450 kts | 120° |
| 2026-04-23 15:40 | 18.49633 | 74.11594 | 32438 ft | 450 kts | 120° |
| 2026-04-23 15:40 | 18.48345 | 74.14562 | 32762 ft | 451 kts | 120° |
| 2026-04-23 15:40 | 18.47048 | 74.17551 | 33118 ft | 450 kts | 120° |
| 2026-04-23 15:41 | 18.45742 | 74.20554 | 33497 ft | 450 kts | 120° |
| 2026-04-23 15:41 | 18.44448 | 74.23528 | 33891 ft | 449 kts | 120° |
| 2026-04-23 15:41 | 18.43156 | 74.26505 | 34261 ft | 448 kts | 121° |
| 2026-04-23 15:41 | 18.41850 | 74.29510 | 34589 ft | 448 kts | 121° |
| 2026-04-23 15:42 | 18.40560 | 74.32474 | 34928 ft | 446 kts | 121° |
| 2026-04-23 15:42 | 18.39272 | 74.35440 | 35271 ft | 445 kts | 121° |
| 2026-04-23 15:42 | 18.37981 | 74.38408 | 35533 ft | 446 kts | 121° |
| 2026-04-23 15:42 | 18.36690 | 74.41367 | 35769 ft | 447 kts | 121° |
| 2026-04-23 15:43 | 18.35403 | 74.44316 | 35996 ft | 448 kts | 121° |
| 2026-04-23 15:43 | 18.34098 | 74.47308 | 36146 ft | 451 kts | 121° |
| 2026-04-23 15:43 | 18.32780 | 74.50329 | 36321 ft | 453 kts | 122° |
| 2026-04-23 15:43 | 18.31480 | 74.53313 | 36574 ft | 453 kts | 122° |
| 2026-04-23 15:44 | 18.30163 | 74.56338 | 36839 ft | 452 kts | 122° |
| 2026-04-23 15:44 | 18.27525 | 74.62368 | 36939 ft | 457 kts | 122° |
| 2026-04-23 15:45 | 18.24879 | 74.68415 | 36931 ft | 457 kts | 123° |
| 2026-04-23 15:45 | 18.22248 | 74.74458 | 36929 ft | 455 kts | 123° |
| 2026-04-23 15:46 | 18.19625 | 74.80517 | 36927 ft | 456 kts | 123° |
| 2026-04-23 15:46 | 18.17007 | 74.86558 | 36922 ft | 455 kts | 123° |
| 2026-04-23 15:47 | 18.14366 | 74.92645 | 36913 ft | 456 kts | 123° |
| 2026-04-23 15:47 | 18.11755 | 74.98653 | 36910 ft | 455 kts | 123° |
| 2026-04-23 15:48 | 18.09119 | 75.04722 | 36917 ft | 456 kts | 123° |
| 2026-04-23 15:48 | 18.06506 | 75.10734 | 36922 ft | 456 kts | 123° |
| 2026-04-23 15:49 | 18.03873 | 75.16784 | 36928 ft | 456 kts | 123° |
| 2026-04-23 15:49 | 18.01225 | 75.22851 | 36926 ft | 458 kts | 123° |
| 2026-04-23 15:50 | 17.98572 | 75.28946 | 36921 ft | 457 kts | 123° |
| 2026-04-23 15:50 | 17.95934 | 75.34985 | 36913 ft | 457 kts | 123° |
| 2026-04-23 15:51 | 17.93286 | 75.41044 | 36913 ft | 457 kts | 123° |
| 2026-04-23 15:51 | 17.90646 | 75.47085 | 36915 ft | 458 kts | 123° |
| 2026-04-23 15:52 | 17.87983 | 75.53162 | 36917 ft | 459 kts | 123° |
| 2026-04-23 15:52 | 17.85326 | 75.59234 | 36915 ft | 456 kts | 124° |
| 2026-04-23 15:53 | 17.82675 | 75.65269 | 36917 ft | 458 kts | 124° |
| 2026-04-23 15:53 | 17.80011 | 75.71323 | 36915 ft | 458 kts | 124° |
| 2026-04-23 15:54 | 17.77338 | 75.77399 | 36915 ft | 459 kts | 124° |
| 2026-04-23 15:54 | 17.74684 | 75.83438 | 36907 ft | 457 kts | 124° |
| 2026-04-23 15:55 | 17.72018 | 75.89489 | 36905 ft | 458 kts | 124° |
| 2026-04-23 15:55 | 17.69345 | 75.95548 | 36906 ft | 460 kts | 124° |
| 2026-04-23 15:56 | 17.66668 | 76.01605 | 36903 ft | 460 kts | 124° |
| 2026-04-23 15:56 | 17.63955 | 76.07675 | 36899 ft | 460 kts | 124° |
| 2026-04-23 15:57 | 17.61244 | 76.13736 | 36900 ft | 458 kts | 124° |
| 2026-04-23 15:57 | 17.58547 | 76.19760 | 36897 ft | 459 kts | 124° |
| 2026-04-23 15:58 | 17.55824 | 76.25840 | 36524 ft | 459 kts | 124° |
| 2026-04-23 15:58 | 17.54485 | 76.28835 | 36216 ft | 456 kts | 124° |
| 2026-04-23 15:58 | 17.53159 | 76.31801 | 35853 ft | 453 kts | 124° |
| 2026-04-23 15:58 | 17.51815 | 76.34807 | 35397 ft | 450 kts | 124° |
| 2026-04-23 15:59 | 17.50484 | 76.37762 | 34794 ft | 450 kts | 124° |
| 2026-04-23 15:59 | 17.49155 | 76.40719 | 34187 ft | 450 kts | 123° |
| 2026-04-23 15:59 | 17.47827 | 76.43677 | 33562 ft | 451 kts | 123° |
| 2026-04-23 15:59 | 17.46496 | 76.46654 | 32904 ft | 451 kts | 123° |
| 2026-04-23 16:00 | 17.45166 | 76.49612 | 32314 ft | 453 kts | 123° |
| 2026-04-23 16:00 | 17.43830 | 76.52566 | 31662 ft | 456 kts | 122° |
| 2026-04-23 16:00 | 17.42473 | 76.55570 | 31009 ft | 458 kts | 121° |
| 2026-04-23 16:00 | 17.41115 | 76.58586 | 30506 ft | 455 kts | 120° |
| 2026-04-23 16:01 | 17.39783 | 76.61562 | 30130 ft | 450 kts | 120° |
| 2026-04-23 16:01 | 17.38467 | 76.64496 | 29702 ft | 447 kts | 120° |
| 2026-04-23 16:01 | 17.37151 | 76.67426 | 29279 ft | 443 kts | 120° |
| 2026-04-23 16:01 | 17.35843 | 76.70334 | 28853 ft | 439 kts | 119° |
| 2026-04-23 16:02 | 17.34565 | 76.73174 | 28429 ft | 434 kts | 119° |
| 2026-04-23 16:02 | 17.33275 | 76.76038 | 28010 ft | 430 kts | 119° |
| 2026-04-23 16:02 | 17.32126 | 76.78893 | 27572 ft | 430 kts | 111° |
| 2026-04-23 16:02 | 17.31375 | 76.81904 | 27133 ft | 429 kts | 102° |
| 2026-04-23 16:03 | 17.31045 | 76.84991 | 26700 ft | 428 kts | 96° |
| 2026-04-23 16:03 | 17.30887 | 76.88099 | 26216 ft | 426 kts | 95° |
| 2026-04-23 16:03 | 17.30757 | 76.91166 | 25693 ft | 423 kts | 94° |
| 2026-04-23 16:03 | 17.30627 | 76.94223 | 25387 ft | 423 kts | 95° |
| 2026-04-23 16:04 | 17.30493 | 76.97263 | 25173 ft | 421 kts | 95° |
| 2026-04-23 16:04 | 17.30352 | 77.00326 | 24836 ft | 424 kts | 96° |
| 2026-04-23 16:04 | 17.30200 | 77.03404 | 24080 ft | 429 kts | 96° |
| 2026-04-23 16:04 | 17.30039 | 77.06529 | 23537 ft | 427 kts | 96° |
| 2026-04-23 16:05 | 17.29935 | 77.08555 | 23220 ft | 419 kts | 96° |
| 2026-04-23 16:05 | 17.29735 | 77.12511 | 22635 ft | 401 kts | 95° |
| 2026-04-23 16:05 | 17.29587 | 77.15390 | 22210 ft | 392 kts | 95° |
| 2026-04-23 16:05 | 17.29442 | 77.18206 | 21810 ft | 385 kts | 95° |
| 2026-04-23 16:06 | 17.29295 | 77.21007 | 21426 ft | 383 kts | 95° |
| 2026-04-23 16:06 | 17.29150 | 77.23776 | 21054 ft | 382 kts | 95° |
| 2026-04-23 16:06 | 17.29006 | 77.26543 | 20697 ft | 380 kts | 94° |
| 2026-04-23 16:06 | 17.28866 | 77.29263 | 20316 ft | 377 kts | 94° |
| 2026-04-23 16:07 | 17.28724 | 77.31984 | 19918 ft | 374 kts | 94° |
| 2026-04-23 16:07 | 17.28583 | 77.34694 | 19512 ft | 372 kts | 94° |
| 2026-04-23 16:07 | 17.28442 | 77.37389 | 19102 ft | 370 kts | 94° |
| 2026-04-23 16:07 | 17.28302 | 77.40054 | 18693 ft | 367 kts | 94° |
| 2026-04-23 16:08 | 17.28163 | 77.42683 | 18289 ft | 365 kts | 94° |
| 2026-04-23 16:08 | 17.28023 | 77.45322 | 17881 ft | 362 kts | 94° |
| 2026-04-23 16:08 | 17.27885 | 77.47929 | 17476 ft | 356 kts | 94° |
| 2026-04-23 16:08 | 17.27747 | 77.50511 | 17079 ft | 354 kts | 93° |
| 2026-04-23 16:09 | 17.27611 | 77.53043 | 16689 ft | 350 kts | 93° |
| 2026-04-23 16:09 | 17.27474 | 77.55576 | 16299 ft | 348 kts | 93° |
| 2026-04-23 16:09 | 17.27337 | 77.58110 | 15904 ft | 346 kts | 93° |
| 2026-04-23 16:09 | 17.27204 | 77.60603 | 15511 ft | 343 kts | 93° |
| 2026-04-23 16:10 | 17.27070 | 77.63055 | 15120 ft | 341 kts | 93° |
| 2026-04-23 16:10 | 17.26936 | 77.65519 | 14723 ft | 338 kts | 93° |
| 2026-04-23 16:10 | 17.26803 | 77.67982 | 14323 ft | 335 kts | 93° |
| 2026-04-23 16:10 | 17.26674 | 77.70400 | 13925 ft | 333 kts | 93° |
| 2026-04-23 16:11 | 17.26545 | 77.72802 | 13526 ft | 331 kts | 93° |
| 2026-04-23 16:11 | 17.26413 | 77.75170 | 13134 ft | 329 kts | 94° |
| 2026-04-23 16:11 | 17.26237 | 77.77568 | 12751 ft | 326 kts | 94° |
| 2026-04-23 16:11 | 17.26050 | 77.79917 | 12378 ft | 324 kts | 94° |
| 2026-04-23 16:12 | 17.25862 | 77.82252 | 12007 ft | 323 kts | 94° |
| 2026-04-23 16:12 | 17.25678 | 77.84569 | 11632 ft | 322 kts | 94° |
| 2026-04-23 16:12 | 17.25494 | 77.86895 | 11235 ft | 321 kts | 94° |
| 2026-04-23 16:12 | 17.25314 | 77.89197 | 10848 ft | 319 kts | 94° |
| 2026-04-23 16:13 | 17.25134 | 77.91502 | 10462 ft | 317 kts | 94° |
| 2026-04-23 16:13 | 17.24785 | 77.95978 | 10077 ft | 296 kts | 94° |
| 2026-04-23 16:13 | 17.24623 | 77.98066 | 9941 ft | 285 kts | 94° |
| 2026-04-23 16:14 | 17.24462 | 78.00139 | 9593 ft | 283 kts | 94° |
| 2026-04-23 16:14 | 17.24305 | 78.02184 | 9249 ft | 280 kts | 94° |
| 2026-04-23 16:14 | 17.24149 | 78.04183 | 8923 ft | 277 kts | 95° |
| 2026-04-23 16:14 | 17.23982 | 78.06197 | 8598 ft | 277 kts | 96° |
| 2026-04-23 16:15 | 17.23704 | 78.08196 | 8291 ft | 282 kts | 99° |
| 2026-04-23 16:15 | 17.23172 | 78.10156 | 7928 ft | 282 kts | 113° |
| 2026-04-23 16:15 | 17.22540 | 78.12096 | 7515 ft | 280 kts | 99° |
| 2026-04-23 16:15 | 17.22396 | 78.14094 | 7136 ft | 279 kts | 90° |
| 2026-04-23 16:16 | 17.22461 | 78.16116 | 6689 ft | 274 kts | 88° |
| 2026-04-23 16:16 | 17.22543 | 78.18071 | 6177 ft | 267 kts | 88° |
| 2026-04-23 16:16 | 17.22596 | 78.19957 | 5896 ft | 252 kts | 89° |
| 2026-04-23 16:16 | 17.22628 | 78.21755 | 5522 ft | 247 kts | 90° |
| 2026-04-23 16:17 | 17.22649 | 78.23566 | 5084 ft | 249 kts | 90° |
| 2026-04-23 16:17 | 17.22668 | 78.25357 | 4772 ft | 246 kts | 90° |
| 2026-04-23 16:17 | 17.22685 | 78.27135 | 4458 ft | 244 kts | 90° |
| 2026-04-23 16:17 | 17.22705 | 78.28856 | 4143 ft | 231 kts | 90° |
| 2026-04-23 16:18 | 17.22724 | 78.30495 | 3858 ft | 218 kts | 90° |
| 2026-04-23 16:18 | 17.22742 | 78.32000 | 3668 ft | 199 kts | 90° |
| 2026-04-23 16:18 | 17.22759 | 78.33409 | 3375 ft | 185 kts | 90° |
| 2026-04-23 16:18 | 17.22776 | 78.34695 | 3121 ft | 170 kts | 90° |
| 2026-04-23 16:19 | 17.22791 | 78.35887 | 2926 ft | 156 kts | 90° |
| 2026-04-23 16:19 | 17.22805 | 78.36982 | 2735 ft | 150 kts | 91° |
| 2026-04-23 16:19 | 17.22819 | 78.38075 | 2560 ft | 151 kts | 91° |
| 2026-04-23 16:19 | 17.22833 | 78.39172 | 2371 ft | 151 kts | 90° |
| 2026-04-23 16:20 | 17.22849 | 78.40280 | 2179 ft | 151 kts | 90° |
| 2026-04-23 16:20 | 17.22860 | 78.41378 | 2011 ft | 151 kts | 90° |
| 2026-04-23 16:20 | 17.22869 | 78.42430 | 1979 ft | 130 kts | 88° |
| 2026-04-23 16:20 | 17.22884 | 78.43192 | 2006 ft | 76 kts | 90° |
| 2026-04-23 16:21 | 17.22960 | 78.43478 | 2017 ft | 20 kts | 58° |
| 2026-04-23 16:21 | 17.22993 | 78.43535 | 2019 ft | 6 kts | 59° |
| 2026-04-23 16:21 | 17.23012 | 78.43568 | 2021 ft | 5 kts | 59° |
| 2026-04-23 16:21 | 17.23037 | 78.43612 | 2023 ft | 6 kts | 59° |
| 2026-04-23 16:22 | 17.23061 | 78.43653 | 2024 ft | 6 kts | 57° |
| 2026-04-23 16:22 | 17.23097 | 78.43694 | 2026 ft | 9 kts | 29° |
| 2026-04-23 16:22 | 17.23178 | 78.43703 | 2025 ft | 13 kts | 359° |
| 2026-04-23 16:22 | 17.23249 | 78.43726 | 2024 ft | 9 kts | 66° |
| 2026-04-23 16:23 | 17.23260 | 78.43768 | 2025 ft | 7 kts | 56° |
| 2026-04-23 16:23 | 17.23333 | 78.43780 | 2023 ft | 13 kts | 359° |
| 2026-04-23 16:23 | 17.23435 | 78.43778 | 2021 ft | 15 kts | 359° |
| 2026-04-23 16:23 | 17.23541 | 78.43775 | 2019 ft | 10 kts | 358° |
| 2026-04-23 16:24 | 17.23611 | 78.43774 | 2017 ft | 10 kts | 358° |
| 2026-04-23 16:24 | 17.23656 | 78.43795 | 2016 ft | 8 kts | 80° |
| 2026-04-23 16:24 | 17.23650 | 78.43845 | 2013 ft | 6 kts | 147° |
| 2026-04-23 16:24 | 17.23637 | 78.43847 | 2013 ft | 0 kts | 182° |
| 2026-04-23 16:25 | 17.23628 | 78.43846 | 2014 ft | 0 kts | 183° |
| 2026-04-23 16:25 | 17.23614 | 78.43846 | 2015 ft | 3 kts | 178° |
| 2026-04-23 16:25 | 17.23610 | 78.43846 | 2015 ft | 2 kts | 178° |
| 2026-04-23 16:25 | 17.23608 | 78.43847 | 2015 ft | 0 kts | 178° |
| 2026-04-23 16:26 | 17.23609 | 78.43847 | 2015 ft | 0 kts | 178° |